Time;durP1;ratioP1;P1;durP2;ratioP2;P2;SDS_P1;SDS_P2;PMS_P1;PMS_P2;Temp;Humidity;BMP_temperature;BMP_pressure;BME280_temperature;BME280_humidity;BME280_pressure;Samples;Min_cycle;Max_cycle;Signal;HPM_P1;HPM_P2
2022/07/12 00:00:38;;;;;;;2.97;2.67;;;;;;;18.02;100.00;96931.69;5071508;27;102662;-62
2022/07/12 00:03:05;;;;;;;2.67;1.90;;;;;;;18.07;100.00;96931.66;5072001;27;101823;-62
2022/07/12 00:05:34;;;;;;;5.20;3.53;;;;;;;18.00;100.00;96933.88;5071581;27;102917;-62
2022/07/12 00:08:01;;;;;;;8.20;4.93;;;;;;;18.05;100.00;96929.25;5071373;27;103235;-62
2022/07/12 00:10:29;;;;;;;3.80;3.30;;;;;;;18.06;100.00;96927.38;5053050;27;102343;-62
2022/07/12 00:12:56;;;;;;;5.07;3.83;;;;;;;18.10;100.00;96923.81;5053072;27;105191;-62
2022/07/12 00:15:23;;;;;;;5.70;3.57;;;;;;;18.10;100.00;96923.03;5071225;27;103257;-62
2022/07/12 00:17:51;;;;;;;4.23;3.53;;;;;;;18.04;100.00;96926.84;5072130;27;101794;-62
2022/07/12 00:20:18;;;;;;;9.03;7.40;;;;;;;18.11;100.00;96922.75;5055857;27;103659;-62
2022/07/12 00:22:47;;;;;;;5.67;4.57;;;;;;;18.05;100.00;96921.16;5071965;27;101795;-62
2022/07/12 00:25:14;;;;;;;3.10;2.80;;;;;;;18.03;100.00;96917.19;5071387;27;102311;-62
2022/07/12 00:27:41;;;;;;;4.87;4.07;;;;;;;17.99;100.00;96916.91;5071103;27;104293;-62
2022/07/12 00:30:10;;;;;;;3.33;2.87;;;;;;;17.99;100.00;96916.13;5053024;27;102067;-62
2022/07/12 00:32:37;;;;;;;3.20;2.90;;;;;;;17.97;100.00;96919.09;5071220;27;102575;-62
2022/07/12 00:35:05;;;;;;;2.53;2.33;;;;;;;17.90;100.00;96918.63;5070335;27;102651;-62
2022/07/12 00:37:32;;;;;;;2.30;2.10;;;;;;;17.82;100.00;96921.94;5071657;27;101749;-62
2022/07/12 00:40:00;;;;;;;2.27;1.40;;;;;;;17.75;100.00;96920.66;5071450;27;102893;-62
2022/07/12 00:42:28;;;;;;;1.03;1.03;;;;;;;17.74;100.00;96930.63;5074059;27;102685;-62
2022/07/12 00:44:55;;;;;;;2.37;2.10;;;;;;;17.75;100.00;96920.66;5052896;27;105291;-62
2022/07/12 00:47:32;;;;;;;2.23;1.83;;;;;;;17.72;100.00;96923.91;5070888;27;103134;-62
2022/07/12 00:50:00;;;;;;;2.03;1.87;;;;;;;17.72;100.00;96926.59;5071515;27;101773;-62
2022/07/12 00:52:27;;;;;;;2.17;1.80;;;;;;;17.69;100.00;96922.59;5052681;27;105188;-62
2022/07/12 00:54:54;;;;;;;1.87;1.77;;;;;;;17.59;100.00;96932.63;5070689;27;102644;-62
2022/07/12 00:57:23;;;;;;;8.80;6.50;;;;;;;17.72;100.00;96929.31;5071130;27;101803;-62
2022/07/12 00:59:49;;;;;;;12.20;6.17;;;;;;;17.78;100.00;96928.97;5071323;27;102468;-62
2022/07/12 01:02:17;;;;;;;7.23;5.10;;;;;;;17.81;100.00;96930.28;5070716;27;102604;-62
2022/07/12 01:04:45;;;;;;;2.50;2.23;;;;;;;17.70;100.00;96934.13;5055799;27;102225;-62
2022/07/12 01:07:13;;;;;;;6.90;5.23;;;;;;;17.66;100.00;96933.13;5070372;27;103199;-62
2022/07/12 01:09:40;;;;;;;10.20;8.03;;;;;;;17.65;100.00;96928.84;5052492;27;102003;-62
2022/07/12 01:12:08;;;;;;;9.10;6.60;;;;;;;17.63;100.00;96934.47;5070770;27;102288;-62
2022/07/12 01:14:39;;;;;;;5.40;4.30;;;;;;;17.62;100.00;96932.06;5070334;27;103200;-62
2022/07/12 01:17:07;;;;;;;7.93;5.43;;;;;;;17.61;100.00;96930.47;5070999;27;102051;-62
2022/07/12 01:19:37;;;;;;;6.07;4.63;;;;;;;17.63;100.00;96928.28;5070863;27;102519;-62
2022/07/12 01:22:09;;;;;;;2.80;2.50;;;;;;;17.57;100.00;96932.09;5070204;27;102765;-62
2022/07/12 01:24:38;;;;;;;5.00;3.67;;;;;;;17.58;100.00;96936.41;5052493;27;101781;-62
2022/07/12 01:27:06;;;;;;;2.53;1.80;;;;;;;17.55;100.00;96929.69;5073918;27;102797;-62
2022/07/12 01:29:34;;;;;;;8.50;5.20;;;;;;;17.55;100.00;96932.38;5052270;27;101964;-62
2022/07/12 01:32:24;;;;;;;3.50;3.20;;;;;;;17.49;100.00;96935.41;5052028;27;103502;-62
2022/07/12 01:34:50;;;;;;;2.43;2.10;;;;;;;17.48;100.00;96934.59;5051655;27;103794;-62
2022/07/12 01:37:19;;;;;;;7.00;5.13;;;;;;;17.42;100.00;96926.84;5070700;27;101996;-62
2022/07/12 01:39:50;;;;;;;8.00;5.60;;;;;;;17.43;100.00;96933.84;5070707;27;102406;-62
2022/07/12 01:42:17;;;;;;;5.60;4.43;;;;;;;17.50;100.00;96931.63;5069865;27;102806;-62
2022/07/12 01:44:44;;;;;;;4.27;2.90;;;;;;;17.52;100.00;96929.44;5071580;27;101839;-62
2022/07/12 01:47:12;;;;;;;3.87;3.50;;;;;;;17.53;100.00;96931.06;5077149;27;102466;-62
2022/07/12 01:49:39;;;;;;;4.30;3.60;;;;;;;17.51;100.00;96930.53;5074125;27;101869;-62
2022/07/12 01:52:07;;;;;;;2.40;2.20;;;;;;;17.40;100.00;96919.06;5074017;27;102938;-62
2022/07/12 01:54:35;;;;;;;2.60;2.17;;;;;;;17.43;100.00;96918.50;5054704;27;105906;-62
2022/07/12 01:57:05;;;;;;;4.53;4.03;;;;;;;17.50;100.00;96920.88;5074263;27;101738;-62
2022/07/12 01:59:32;;;;;;;3.17;2.90;;;;;;;17.47;100.00;96919.56;5073992;27;103207;-62
2022/07/12 02:02:00;;;;;;;4.03;3.63;;;;;;;17.52;100.00;96913.31;5073293;27;103176;-62
2022/07/12 02:04:27;;;;;;;2.60;2.40;;;;;;;17.52;100.00;96916.81;5073737;27;101964;-62
2022/07/12 02:06:56;;;;;;;2.40;2.20;;;;;;;17.49;100.00;96914.69;5073887;27;102997;-62
2022/07/12 02:09:23;;;;;;;6.33;4.30;;;;;;;17.42;100.00;96914.22;5058184;27;104789;-62
2022/07/12 02:11:51;;;;;;;5.33;4.40;;;;;;;17.28;100.00;96910.50;5073185;27;102386;-62
2022/07/12 02:14:19;;;;;;;3.10;2.80;;;;;;;17.18;100.00;96909.78;5073146;27;103080;-62
2022/07/12 02:16:47;;;;;;;6.77;4.53;;;;;;;17.15;100.00;96911.13;5073746;27;101836;-62
2022/07/12 02:19:14;;;;;;;4.60;3.13;;;;;;;17.10;100.00;96913.03;5073800;27;102862;-62
2022/07/12 02:21:42;;;;;;;3.17;2.57;;;;;;;17.14;100.00;96922.16;5073123;27;102582;-62
2022/07/12 02:24:09;;;;;;;2.93;1.10;;;;;;;16.85;100.00;96911.31;5073556;27;101856;-62
2022/07/12 02:26:37;;;;;;;4.63;4.10;;;;;;;16.99;100.00;96912.31;5055104;27;105592;-62
2022/07/12 02:29:06;;;;;;;3.60;3.00;;;;;;;17.00;100.00;96910.44;5054568;27;105719;-62
2022/07/12 02:31:35;;;;;;;3.70;3.17;;;;;;;17.03;100.00;96913.38;5058348;27;101912;-62
2022/07/12 02:34:02;;;;;;;5.47;3.87;;;;;;;17.10;100.00;96913.03;5072858;27;102851;-62
2022/07/12 02:36:29;;;;;;;6.33;4.83;;;;;;;17.13;100.00;96909.81;5054702;27;102007;-62
2022/07/12 02:38:57;;;;;;;3.10;2.80;;;;;;;17.12;100.00;96905.53;5055136;27;105649;-62
2022/07/12 02:41:24;;;;;;;3.20;2.90;;;;;;;17.09;100.00;96912.25;5072810;27;102562;-62
2022/07/12 02:43:51;;;;;;;5.80;3.63;;;;;;;16.96;100.00;96912.06;5073268;27;101819;-62
2022/07/12 02:46:19;;;;;;;12.53;8.63;;;;;;;17.17;100.00;96911.66;5073200;27;102299;-62
2022/07/12 02:48:47;;;;;;;7.30;5.33;;;;;;;17.09;100.00;96917.63;5072550;27;103298;-62
2022/07/12 02:51:14;;;;;;;4.17;2.77;;;;;;;17.06;100.00;96917.38;5072967;27;101960;-62
2022/07/12 02:53:41;;;;;;;3.73;2.80;;;;;;;17.03;100.00;96918.75;5057745;27;103901;-62
2022/07/12 02:56:09;;;;;;;3.50;3.07;;;;;;;17.03;100.00;96921.44;5072329;27;102015;-62
2022/07/12 02:58:36;;;;;;;4.50;2.87;;;;;;;17.05;100.00;96916.56;5054588;27;105296;-62
2022/07/12 03:01:04;;;;;;;3.57;2.60;;;;;;;17.08;100.00;96925.97;5053913;27;105787;-62
2022/07/12 03:03:31;;;;;;;5.77;4.47;;;;;;;17.14;100.00;96920.28;5054498;27;101783;-62
2022/07/12 03:05:59;;;;;;;3.00;2.17;;;;;;;16.93;100.00;96920.66;5072534;27;102939;-62
2022/07/12 03:08:26;;;;;;;4.23;3.33;;;;;;;16.89;100.00;96922.31;5072086;27;104339;-62
2022/07/12 03:10:54;;;;;;;12.30;8.80;;;;;;;17.05;100.00;96924.63;5072776;27;102014;-62
2022/07/12 03:13:20;;;;;;;7.93;6.60;;;;;;;17.08;100.00;96917.91;5072977;27;102452;-62
2022/07/12 03:15:49;;;;;;;5.43;3.60;;;;;;;16.99;100.00;96923.06;5075802;27;102665;-62
2022/07/12 03:18:17;;;;;;;3.70;3.33;;;;;;;16.98;100.00;96917.97;5072864;27;102903;-62
2022/07/12 03:20:44;;;;;;;5.70;3.97;;;;;;;16.98;100.00;96926.00;5071785;27;104404;-62
2022/07/12 03:23:12;;;;;;;3.77;2.90;;;;;;;16.82;100.00;96933.38;5054192;27;101795;-62
2022/07/12 03:25:40;;;;;;;3.80;2.73;;;;;;;16.76;100.00;96939.03;5072728;27;102822;-62
2022/07/12 03:28:07;;;;;;;2.57;1.73;;;;;;;16.76;100.00;96934.47;5053152;27;103973;-62
2022/07/12 03:30:34;;;;;;;4.53;2.80;;;;;;;16.82;100.00;96932.53;5072562;27;101900;-62
2022/07/12 03:33:01;;;;;;;5.57;4.47;;;;;;;16.87;100.00;96932.53;5053807;27;105712;-62
2022/07/12 03:35:28;;;;;;;3.20;2.80;;;;;;;16.86;100.00;96934.44;5072008;27;102762;-62
2022/07/12 03:37:55;;;;;;;4.07;3.00;;;;;;;16.85;100.00;96937.38;5057537;27;101890;-62
2022/07/12 03:40:24;;;;;;;5.53;4.80;;;;;;;16.85;100.00;96934.69;5053072;27;105446;-62
2022/07/12 03:42:53;;;;;;;4.23;3.37;;;;;;;16.76;100.00;96937.16;5072369;27;101937;-62
2022/07/12 03:45:20;;;;;;;5.67;4.97;;;;;;;16.74;100.00;96939.28;5072234;27;102475;-62
2022/07/12 03:47:49;;;;;;;8.47;6.03;;;;;;;16.84;100.00;96936.56;5071754;27;103082;-62
2022/07/12 03:50:16;;;;;;;5.43;4.33;;;;;;;16.84;100.00;96938.47;5071795;27;101848;-62
2022/07/12 03:52:44;;;;;;;2.73;2.47;;;;;;;16.77;100.00;96935.25;5072463;27;102946;-62
2022/07/12 03:55:12;;;;;;;3.67;3.10;;;;;;;16.73;100.00;96937.69;5071751;27;102937;-62
2022/07/12 03:57:41;;;;;;;9.87;7.07;;;;;;;16.73;100.00;96939.59;5075378;27;101919;-62
2022/07/12 04:00:11;;;;;;;5.87;3.90;;;;;;;16.70;100.00;96938.25;5052903;27;105341;-62
2022/07/12 04:02:39;;;;;;;4.57;3.90;;;;;;;16.73;100.00;96939.59;5071840;27;101755;-62
2022/07/12 04:05:08;;;;;;;4.70;4.10;;;;;;;16.73;100.00;96951.13;5071877;27;102253;-62
2022/07/12 04:07:35;;;;;;;3.33;2.97;;;;;;;16.61;100.00;96941.75;5071449;27;102603;-62
2022/07/12 04:10:03;;;;;;;4.13;3.73;;;;;;;16.68;100.00;96955.72;5053499;27;101927;-62
2022/07/12 04:12:30;;;;;;;2.67;2.47;;;;;;;16.75;100.00;96956.22;5071528;27;102344;-62
2022/07/12 04:14:59;;;;;;;3.77;2.63;;;;;;;16.62;100.00;96951.47;5071087;27;102902;-62
2022/07/12 04:17:26;;;;;;;3.37;2.90;;;;;;;16.50;100.00;96946.38;5053519;27;102320;-62
2022/07/12 04:19:53;;;;;;;4.33;3.53;;;;;;;16.50;100.00;96959.00;5056130;27;106360;-62
2022/07/12 04:22:21;;;;;;;4.33;2.90;;;;;;;16.54;100.00;96955.50;5053280;27;102269;-62
2022/07/12 04:24:49;;;;;;;2.17;1.40;;;;;;;16.19;100.00;96960.94;5071423;27;102358;-62
2022/07/12 04:27:16;;;;;;;4.37;3.60;;;;;;;16.49;100.00;96952.03;5053142;27;102594;-62
2022/07/12 04:29:44;;;;;;;1.43;1.43;;;;;;;16.16;100.00;96955.31;5071578;27;101820;-62
2022/07/12 04:32:13;;;;;;;2.27;2.10;;;;;;;16.33;100.00;96956.63;5052884;27;105185;-62
2022/07/12 04:34:40;;;;;;;1.30;1.20;;;;;;;16.18;100.00;96958.53;5071003;27;102778;-62
2022/07/12 04:37:07;;;;;;;3.83;2.00;;;;;;;16.34;100.00;96960.09;5053176;27;101825;-62
2022/07/12 04:39:34;;;;;;;3.20;2.27;;;;;;;16.41;100.00;96961.44;5071488;27;102620;-62
2022/07/12 04:42:02;;;;;;;3.00;1.90;;;;;;;16.49;100.00;96965.44;5055885;27;104170;-62
2022/07/12 04:44:29;;;;;;;2.13;1.40;;;;;;;16.51;100.00;96966.78;5071024;27;102344;-62
2022/07/12 04:46:56;;;;;;;3.77;3.33;;;;;;;16.76;100.00;96963.19;5052096;27;105866;-62
2022/07/12 04:49:25;;;;;;;2.97;2.67;;;;;;;16.88;100.00;96963.69;5052942;27;101943;-62
2022/07/12 04:51:52;;;;;;;2.10;1.90;;;;;;;16.78;100.00;96974.50;5052562;27;104784;-62
2022/07/12 04:54:20;;;;;;;3.20;1.90;;;;;;;16.94;100.00;96970.66;5070533;27;103123;-61
2022/07/12 04:56:47;;;;;;;2.83;1.87;;;;;;;17.01;100.00;96966.56;5071310;27;101824;-61
2022/07/12 04:59:14;;;;;;;2.77;2.57;;;;;;;17.00;100.00;96973.03;5052458;27;106042;-62
2022/07/12 05:01:41;;;;;;;2.00;1.83;;;;;;;17.13;100.00;96971.63;5070247;27;104727;-62
2022/07/12 05:04:09;;;;;;;6.13;2.60;;;;;;;17.09;100.00;96974.06;5055827;27;102002;-62
2022/07/12 05:06:37;;;;;;;4.73;1.40;;;;;;;17.12;100.00;96970.81;5070417;27;102574;-62
2022/07/12 05:09:05;;;;;;;4.73;2.20;;;;;;;17.31;100.00;96974.47;5052497;27;101920;-62
2022/07/12 05:11:33;;;;;;;5.10;3.60;;;;;;;17.60;100.00;96971.91;5070064;27;104453;-62
2022/07/12 05:14:00;;;;;;;3.93;2.80;;;;;;;17.63;100.00;96977.53;5051409;27;105277;-62
2022/07/12 05:16:28;;;;;;;1.70;1.60;;;;;;;17.41;100.00;96976.31;5070932;27;101819;-62
2022/07/12 05:18:55;;;;;;;3.63;2.43;;;;;;;17.40;100.00;96983.59;5052237;27;105196;-62
2022/07/12 05:21:22;;;;;;;1.63;1.50;;;;;;;17.39;100.00;96976.59;5051330;27;105463;-62
2022/07/12 05:23:52;;;;;;;7.03;2.00;;;;;;;17.53;100.00;96987.53;5070362;27;102049;-62
2022/07/12 05:26:20;;;;;;;5.20;2.40;;;;;;;17.61;100.00;96982.34;5072998;27;102319;-62
2022/07/12 05:28:47;;;;;;;1.63;1.47;;;;;;;17.30;100.00;96974.75;5051839;27;102239;-62
2022/07/12 05:31:14;;;;;;;4.23;2.10;;;;;;;17.54;100.00;96975.72;5051404;27;105523;-62
2022/07/12 05:33:42;;;;;;;2.33;1.50;;;;;;;17.38;100.00;96975.00;5069663;27;104136;-62
2022/07/12 05:36:09;;;;;;;4.40;1.80;;;;;;;17.23;100.00;96971.56;5052014;27;101977;-62
2022/07/12 05:38:36;;;;;;;4.80;2.23;;;;;;;17.60;100.00;96979.97;5070580;27;102305;-62
2022/07/12 05:41:05;;;;;;;4.23;1.70;;;;;;;17.85;100.00;96987.84;5069270;27;101837;-62
2022/07/12 05:43:32;;;;;;;1.37;1.20;;;;;;;17.98;100.00;96987.19;5070124;27;101859;-62
2022/07/12 05:45:59;;;;;;;4.43;1.70;;;;;;;18.35;100.00;96984.72;5070239;27;102361;-62
2022/07/12 05:48:26;;;;;;;1.87;1.33;;;;;;;18.45;100.00;96988.13;5072677;27;101785;-62
2022/07/12 05:50:53;;;;;;;2.63;1.77;;;;;;;18.19;100.00;96991.28;5070044;27;102432;-62
2022/07/12 05:53:21;;;;;;;3.13;1.40;;;;;;;18.11;100.00;97005.38;5069357;27;102594;-62
2022/07/12 05:55:49;;;;;;;1.27;1.17;;;;;;;18.10;100.00;96995.72;5034506;27;101945;-62
2022/07/12 05:58:18;;;;;;;3.13;1.37;;;;;;;18.16;100.00;96998.03;5069905;27;102915;-62
2022/07/12 06:00:46;;;;;;;1.30;1.20;;;;;;;18.33;100.00;96992.28;5050652;27;105827;-62
2022/07/12 06:03:13;;;;;;;1.90;1.03;;;;;;;18.33;100.00;97000.34;5051118;27;101872;-62
2022/07/12 06:05:42;;;;;;;1.27;1.27;;;;;;;18.31;100.00;97003.28;5069658;27;102611;-62
2022/07/12 06:08:09;;;;;;;2.93;1.10;;;;;;;18.32;100.00;97001.44;5053943;27;104355;-62
2022/07/12 06:10:36;;;;;;;2.17;1.10;;;;;;;18.47;100.00;96999.41;5070018;27;102795;-62
2022/07/12 06:13:04;;;;;;;4.10;1.60;;;;;;;18.57;100.00;96993.09;5068798;27;103206;-62
2022/07/12 06:15:32;;;;;;;1.27;1.17;;;;;;;18.75;100.00;97003.94;5052129;27;101962;-62
2022/07/12 06:18:00;;;;;;;2.67;1.37;;;;;;;18.77;100.00;97006.34;5070194;27;102360;-62
2022/07/12 06:20:27;;;;;;;1.20;1.10;;;;;;;18.75;100.00;97006.63;5050892;27;105808;-62
2022/07/12 06:22:54;;;;;;;1.10;1.10;;;;;;;19.36;100.00;97004.03;5051537;27;101838;-62
2022/07/12 06:25:22;;;;;;;2.40;1.30;;;;;;;19.15;100.00;97002.66;5070099;27;102526;-62
2022/07/12 06:27:49;;;;;;;2.10;1.30;;;;;;;19.05;100.00;97002.78;5069052;27;103070;-62
2022/07/12 06:30:17;;;;;;;2.50;1.40;;;;;;;19.26;100.00;97009.53;5055085;27;102046;-62
2022/07/12 06:32:47;;;;;;;1.43;1.33;;;;;;;19.41;100.00;97001.25;5071626;27;102599;-62
2022/07/12 06:35:15;;;;;;;3.47;1.43;;;;;;;19.32;100.00;97011.09;5073094;27;101807;-62
2022/07/12 06:37:43;;;;;;;2.70;1.20;;;;;;;19.52;100.00;97008.13;5073785;27;102424;-62
2022/07/12 06:40:11;;;;;;;1.90;1.33;;;;;;;19.78;100.00;97020.16;5072750;27;102773;-62
2022/07/12 06:42:39;;;;;;;1.63;1.20;;;;;;;19.79;100.00;97010.94;5054781;27;101898;-62
2022/07/12 06:45:07;;;;;;;2.47;1.83;;;;;;;19.88;100.00;97017.25;5073173;27;102413;-62
2022/07/12 06:47:35;;;;;;;2.07;1.60;;;;;;;19.80;100.00;97010.66;5072763;27;102684;-62
2022/07/12 06:50:04;;;;;;;2.47;1.80;;;;;;;20.00;100.00;97006.84;5073266;27;102007;-62
2022/07/12 06:52:31;;;;;;;2.07;1.40;;;;;;;20.08;100.00;97008.88;5057464;27;106088;-62
2022/07/12 06:54:58;;;;;;;3.53;1.40;;;;;;;20.48;100.00;97005.50;5054751;27;101935;-62
2022/07/12 06:57:27;;;;;;;1.70;1.47;;;;;;;20.34;100.00;97000.06;5073035;27;102728;-62
2022/07/12 06:59:54;;;;;;;1.77;1.50;;;;;;;20.62;100.00;97012.53;5072363;27;104205;-62
2022/07/12 07:02:21;;;;;;;1.73;1.43;;;;;;;20.76;100.00;97005.22;5054664;27;101959;-62
2022/07/12 07:04:48;;;;;;;3.67;1.77;;;;;;;20.90;100.00;96999.84;5072623;27;102282;-62
2022/07/12 07:07:17;;;;;;;3.00;1.57;;;;;;;20.92;100.00;97005.78;5072544;27;102558;-62
2022/07/12 07:09:44;;;;;;;1.77;1.60;;;;;;;20.71;100.00;96999.13;5054377;27;101861;-62
2022/07/12 07:12:11;;;;;;;1.60;1.40;;;;;;;20.37;100.00;96999.47;5072467;27;102692;-62
2022/07/12 07:14:39;;;;;;;1.77;1.50;;;;;;;20.71;100.00;96994.50;5075792;27;102550;-62
2022/07/12 07:17:05;;;;;;;1.60;1.50;;;;;;;20.83;100.00;96992.13;5073046;27;102448;-62
2022/07/12 07:19:32;;;;;;;1.90;1.73;;;;;;;20.48;100.00;96992.00;5072223;27;103102;-62
2022/07/12 07:22:00;;;;;;;1.77;1.63;;;;;;;20.94;100.00;96998.16;5072249;27;101973;-62
2022/07/12 07:24:29;;;;;;;3.30;1.60;;;;;;;20.91;100.00;96990.63;5072676;27;102608;-62
2022/07/12 07:26:56;;;;;;;1.90;1.70;;;;;;;21.23;100.00;96993.19;5053196;27;105784;-62
2022/07/12 07:32:08;;;;;;;1.63;1.50;;;;;;;21.50;100.00;96995.84;5054224;27;105541;-62
2022/07/12 07:34:35;;;;;;;2.43;1.40;;;;;;;21.07;100.00;96997.31;5052908;27;105815;-62
2022/07/12 07:37:02;;;;;;;2.70;1.77;;;;;;;21.33;100.00;97003.81;5075936;27;101879;-62
2022/07/12 07:39:31;;;;;;;4.20;2.00;;;;;;;21.29;100.00;96998.22;5071856;27;102557;-62
2022/07/12 07:41:58;;;;;;;1.93;1.70;;;;;;;21.47;100.00;97002.69;5053832;27;102023;-62
2022/07/12 07:44:26;;;;;;;2.20;2.00;;;;;;;21.40;100.00;96999.59;5053543;27;103945;-62
2022/07/12 07:46:52;;;;;;;1.93;1.80;;;;;;;21.76;100.00;97005.84;5053149;27;105411;-62
2022/07/12 07:49:19;;;;;;;3.33;1.60;;;;;;;22.50;100.00;97004.31;5053806;27;101799;-62
2022/07/12 07:51:46;;;;;;;1.80;1.70;;;;;;;21.91;100.00;97001.97;5053596;27;105778;-62
2022/07/12 07:54:13;;;;;;;1.80;1.70;;;;;;;21.89;100.00;97005.00;5052955;27;105046;-62
2022/07/12 07:56:42;;;;;;;2.63;2.27;;;;;;;21.11;100.00;97001.84;5057232;27;101874;-62
2022/07/12 07:59:09;;;;;;;4.53;2.20;;;;;;;21.25;100.00;97001.84;5053010;27;106056;-62
2022/07/12 08:01:46;;;;;;;2.30;2.10;;;;;;;21.50;100.00;97003.97;5053559;27;101882;-62
2022/07/12 08:04:13;;;;;;;2.00;1.90;;;;;;;21.63;100.00;97006.66;5053348;27;105552;-62
2022/07/12 08:06:41;;;;;;;2.30;2.10;;;;;;;21.34;100.00;97002.69;5052447;27;105060;-62
2022/07/12 08:09:08;;;;;;;3.23;2.33;;;;;;;21.50;100.00;97004.78;5053535;27;101963;-62
2022/07/12 08:11:36;;;;;;;2.07;1.97;;;;;;;21.53;100.00;97008.78;5053145;27;104921;-62
2022/07/12 08:14:06;;;;;;;3.17;2.03;;;;;;;21.86;100.00;97010.22;5052696;27;105398;-62
2022/07/12 08:16:34;;;;;;;2.40;2.20;;;;;;;22.15;100.00;97011.41;5053410;27;102208;-62
2022/07/12 08:19:01;;;;;;;3.20;2.13;;;;;;;21.35;100.00;97009.72;5055751;27;103503;-62
2022/07/12 08:21:29;;;;;;;1.77;1.67;;;;;;;21.95;100.00;97011.06;5071549;27;101789;-62
2022/07/12 08:23:57;;;;;;;2.77;1.70;;;;;;;22.25;100.00;97007.63;5071703;27;102997;-62
2022/07/12 08:26:24;;;;;;;1.50;1.30;;;;;;;22.62;100.00;97009.97;5071196;27;101736;-62
2022/07/12 08:28:52;;;;;;;2.20;1.50;;;;;;;22.11;100.00;97009.59;5071541;27;102019;-62
2022/07/12 08:31:21;;;;;;;4.03;1.60;;;;;;;22.66;100.00;97003.59;5071779;27;102556;-62
2022/07/12 08:33:49;;;;;;;2.07;1.57;;;;;;;22.10;100.00;97005.28;5071039;27;101977;-62
2022/07/12 08:36:16;;;;;;;1.90;1.40;;;;;;;22.65;100.00;97004.72;5071592;27;101854;-62
2022/07/12 08:38:44;;;;;;;1.63;1.30;;;;;;;22.66;100.00;97009.00;5053062;27;105772;-62
2022/07/12 08:41:13;;;;;;;2.10;1.57;;;;;;;22.00;100.00;97017.19;5074392;27;102606;-62
2022/07/12 08:43:41;;;;;;;2.07;1.20;;;;;;;22.18;100.00;97007.28;5052537;27;105333;-62
2022/07/12 08:46:09;;;;;;;1.30;1.20;;;;;;;21.89;100.00;97012.31;5070806;27;103143;-62
2022/07/12 08:48:40;;;;;;;2.23;1.67;;;;;;;21.86;100.00;97021.06;5071361;27;102003;-62
2022/07/12 08:51:08;;;;;;;2.27;2.13;;;;;;;21.65;100.00;97022.59;5071460;27;102952;-62
2022/07/12 08:53:36;;;;;;;1.63;1.53;;;;;;;21.61;100.00;97021.59;5070325;27;102631;-62
2022/07/12 08:56:04;;;;;;;2.00;1.37;;;;;;;21.98;100.00;97024.00;5070627;27;101820;-62
2022/07/12 08:58:32;;;;;;;1.70;1.30;;;;;;;22.22;100.00;97027.19;5071252;27;102281;-62
2022/07/12 09:01:00;;;;;;;1.10;1.10;;;;;;;22.61;100.00;97025.41;5070662;27;103244;-62
2022/07/12 09:03:27;;;;;;;2.30;1.30;;;;;;;22.39;100.00;97021.91;5056125;27;102386;-62
2022/07/12 09:05:58;;;;;;;1.43;1.30;;;;;;;22.04;100.00;97029.00;5070250;27;102742;-62
2022/07/12 09:08:27;;;;;;;1.73;1.43;;;;;;;22.14;100.00;97026.06;5052525;27;101917;-62
2022/07/12 09:11:02;;;;;;;1.10;1.00;;;;;;;21.75;100.00;97028.59;5070309;27;104016;-63
2022/07/12 09:13:52;;;;;;;1.40;1.30;;;;;;;21.51;100.00;97028.03;5070315;27;102684;-62
2022/07/12 09:16:22;;;;;;;1.20;1.20;;;;;;;22.22;100.00;97035.34;5070968;27;101889;-62
2022/07/12 09:18:51;;;;;;;1.43;1.27;;;;;;;22.00;100.00;97035.34;5052466;27;103941;-62
2022/07/12 09:21:27;;;;;;;1.83;1.53;;;;;;;22.01;100.00;97026.91;5051593;27;105882;-62
2022/07/12 09:23:56;;;;;;;2.70;1.40;;;;;;;22.79;100.00;97029.03;5071133;27;101703;-62
2022/07/12 09:26:24;;;;;;;1.47;1.37;;;;;;;22.72;100.00;97028.69;5073440;27;102348;-62
2022/07/12 09:28:52;;;;;;;1.57;1.30;;;;;;;22.38;100.00;97033.84;5070826;27;102416;-62
2022/07/12 09:31:20;;;;;;;2.40;1.43;;;;;;;22.74;100.00;97032.69;5070762;27;102859;-62
2022/07/12 09:37:04;;;;;;;1.83;1.20;;;;;;;22.44;100.00;97030.75;5007416;28;102116;-62
2022/07/12 09:39:31;;;;;;;1.10;1.10;;;;;;;22.62;100.00;97032.44;5007719;28;103064;-62
2022/07/12 09:41:59;;;;;;;2.07;1.50;;;;;;;22.69;100.00;97027.38;5034466;27;102645;-62
2022/07/12 09:44:29;;;;;;;1.60;1.40;;;;;;;22.99;100.00;97031.97;5052064;27;102142;-62
2022/07/12 09:47:00;;;;;;;1.30;1.20;;;;;;;22.92;99.18;97026.19;5070739;27;102968;-62
2022/07/12 09:49:29;;;;;;;1.20;1.20;;;;;;;22.99;97.86;97025.75;5054872;27;105849;-62
2022/07/12 09:51:57;;;;;;;1.70;1.10;;;;;;;23.81;99.37;97030.09;5051934;27;105327;-62
2022/07/12 09:54:29;;;;;;;1.43;1.20;;;;;;;22.81;100.00;97024.88;5069752;27;104337;-62
2022/07/12 09:57:00;;;;;;;1.60;1.50;;;;;;;22.47;100.00;97027.44;5051818;27;102011;-62
2022/07/12 09:59:30;;;;;;;1.40;1.30;;;;;;;22.57;100.00;97029.06;5052019;27;107059;-62
2022/07/12 10:02:00;;;;;;;1.67;1.57;;;;;;;21.96;100.00;97028.94;5051510;27;105527;-62
2022/07/12 10:04:30;;;;;;;1.67;1.57;;;;;;;22.04;100.00;97031.72;5051722;27;102071;-62
2022/07/12 10:06:58;;;;;;;1.43;1.33;;;;;;;22.61;100.00;97035.47;5073033;27;102363;-62
2022/07/12 10:09:27;;;;;;;1.43;1.37;;;;;;;23.89;100.00;97028.53;5058035;27;105266;-62
2022/07/12 10:11:56;;;;;;;1.20;1.20;;;;;;;24.39;100.00;97027.72;5055068;27;106493;-62
2022/07/12 10:14:23;;;;;;;1.53;1.43;;;;;;;24.31;97.55;97022.28;5073182;27;102664;-62
2022/07/12 10:16:54;;;;;;;1.60;1.50;;;;;;;23.77;97.82;97025.63;5055477;27;101890;-62
2022/07/12 10:19:25;;;;;;;1.30;1.20;;;;;;;23.72;93.50;97032.03;5055065;27;104290;-62
2022/07/12 10:21:54;;;;;;;1.37;1.20;;;;;;;23.51;97.63;97030.22;5054652;27;104287;-62
2022/07/12 10:25:02;;;;;;;2.20;1.10;;;;;;;23.74;100.00;97031.69;5073458;27;101788;-62
2022/07/12 10:27:34;;;;;;;1.20;1.10;;;;;;;24.29;100.00;97033.47;5073629;27;102444;-62
2022/07/12 10:30:15;;;;;;;1.43;1.20;;;;;;;23.93;93.28;97032.22;5073185;27;102518;-62
2022/07/12 10:32:44;;;;;;;1.10;1.00;;;;;;;23.93;93.86;97032.22;5076700;27;101824;-62
2022/07/12 10:35:17;;;;;;;1.67;1.57;;;;;;;23.27;96.52;97033.38;5072748;27;102596;-62
2022/07/12 10:38:21;;;;;;;1.60;1.00;;;;;;;24.07;88.23;97030.13;5055088;27;101873;-62
2022/07/12 10:40:50;;;;;;;2.03;1.30;;;;;;;23.88;95.91;97035.06;5073154;27;102337;-62
2022/07/12 10:46:25;;;;;;;1.20;1.10;;;;;;;23.55;96.35;97034.69;5073638;27;101681;-62
2022/07/12 10:49:13;;;;;;;1.20;1.20;;;;;;;23.53;95.03;97041.56;5054869;27;106901;-62
2022/07/12 10:51:40;;;;;;;1.17;1.10;;;;;;;24.39;91.88;97026.91;5072363;27;102667;-62
2022/07/12 10:54:22;;;;;;;1.63;1.27;;;;;;;25.00;84.80;97026.44;5073429;27;101853;-62
2022/07/12 10:56:57;;;;;;;1.20;1.10;;;;;;;24.80;78.57;97027.94;5075976;27;102492;-62
2022/07/12 10:59:28;;;;;;;0.90;0.90;;;;;;;23.12;89.02;97035.69;5073221;27;101728;-62
2022/07/12 11:01:56;;;;;;;1.17;0.97;;;;;;;22.94;96.36;97023.19;5073280;27;102373;-62
2022/07/12 11:04:24;;;;;;;1.97;1.10;;;;;;;23.28;96.20;97023.31;5053482;27;105525;-62
2022/07/12 11:06:56;;;;;;;1.27;1.23;;;;;;;23.16;97.90;97034.75;5073185;27;102198;-62
2022/07/12 11:09:24;;;;;;;2.23;1.10;;;;;;;23.68;96.37;97028.34;5073109;27;102951;-62
2022/07/12 11:11:54;;;;;;;1.07;1.07;;;;;;;23.66;82.81;97025.13;5071997;27;102773;-62
2022/07/12 11:14:23;;;;;;;3.80;1.07;;;;;;;23.79;84.77;97018.78;5072521;27;101971;-62
2022/07/12 11:16:53;;;;;;;1.23;1.13;;;;;;;24.09;84.70;97025.19;5072418;27;102916;-62
2022/07/12 11:19:24;;;;;;;1.10;1.10;;;;;;;23.77;84.83;97026.41;5075578;27;102628;-62
2022/07/12 11:21:55;;;;;;;4.23;1.20;;;;;;;23.56;87.35;97025.47;5054264;27;105272;-62
2022/07/12 11:24:23;;;;;;;2.87;1.13;;;;;;;23.98;82.60;97013.84;5071948;27;103116;-62
2022/07/12 11:26:52;;;;;;;1.63;1.20;;;;;;;24.23;75.39;97013.03;5068849;27;102363;-62
2022/07/12 11:29:19;;;;;;;1.77;0.90;;;;;;;24.34;73.34;97024.34;5071419;27;102404;-62
2022/07/12 11:31:47;;;;;;;2.73;1.20;;;;;;;24.30;80.70;97009.81;5051891;27;105536;-62